createdAt,value
2023-03-29T00:01:44.774Z,2.51
2023-03-29T00:04:48.521Z,2.65
2023-03-29T00:08:01.856Z,2.68
2023-03-29T00:11:05.427Z,2.33
2023-03-29T00:14:08.612Z,2.25
2023-03-29T00:17:11.193Z,2.10
2023-03-29T00:20:14.003Z,1.84
2023-03-29T00:23:18.276Z,1.86
2023-03-29T00:26:20.790Z,1.78
2023-03-29T00:29:24.234Z,1.69
2023-03-29T00:32:27.398Z,1.77
2023-03-29T00:35:30.038Z,1.54
2023-03-29T00:38:32.933Z,1.51
2023-03-29T00:41:36.460Z,1.60
2023-03-29T00:44:59.842Z,1.49
2023-03-29T00:48:06.435Z,1.64
2023-03-29T00:51:13.286Z,1.74
2023-03-29T00:54:18.804Z,1.52
2023-03-29T00:57:25.282Z,1.64
2023-03-29T01:00:37.049Z,1.66
2023-03-29T01:04:05.132Z,1.82
2023-03-29T01:07:30.420Z,1.61
2023-03-29T01:10:51.307Z,1.50
2023-03-29T01:14:04.013Z,1.60
2023-03-29T01:17:07.518Z,1.62
2023-03-29T01:20:20.269Z,1.62
2023-03-29T01:23:29.803Z,1.60
2023-03-29T01:26:33.388Z,1.62
2023-03-29T01:29:51.215Z,1.55
2023-03-29T01:33:03.881Z,1.50
2023-03-29T01:36:39.474Z,1.65
2023-03-29T01:39:42.958Z,1.64
2023-03-29T01:43:12.129Z,1.42
2023-03-29T01:46:38.641Z,1.55
2023-03-29T01:49:48.368Z,1.53
2023-03-29T01:52:56.855Z,1.55
2023-03-29T01:56:07.773Z,1.40
2023-03-29T01:59:18.163Z,1.43
2023-03-29T02:02:25.191Z,1.43
2023-03-29T02:05:31.822Z,1.41
2023-03-29T02:08:35.210Z,1.28
2023-03-29T02:11:37.884Z,1.45
2023-03-29T02:14:40.695Z,1.34
2023-03-29T02:17:44.447Z,1.38
2023-03-29T02:20:49.900Z,1.48
2023-03-29T02:23:55.856Z,1.43
2023-03-29T02:27:00.411Z,1.33
2023-03-29T02:30:06.715Z,1.42
2023-03-29T02:33:19.523Z,1.12
2023-03-29T02:36:28.308Z,1.26
2023-03-29T02:39:33.828Z,1.40
2023-03-29T02:42:42.665Z,1.36
2023-03-29T02:45:46.491Z,1.39
2023-03-29T02:48:52.001Z,1.07
2023-03-29T02:52:01.075Z,1.19
2023-03-29T02:55:08.616Z,1.13
2023-03-29T02:58:13.478Z,0.79
2023-03-29T03:01:20.414Z,0.95
2023-03-29T03:04:26.064Z,1.03
2023-03-29T03:07:30.002Z,0.83
2023-03-29T03:10:34.835Z,1.02
2023-03-29T03:13:38.960Z,0.94
2023-03-29T03:16:43.367Z,0.98
2023-03-29T03:19:46.429Z,1.04
2023-03-29T03:22:50.026Z,1.02
2023-03-29T03:25:53.833Z,1.04
2023-03-29T03:28:57.445Z,0.89
2023-03-29T03:32:39.080Z,1.04
2023-03-29T03:36:06.408Z,0.87
2023-03-29T03:39:12.332Z,1.00
2023-03-29T03:42:15.466Z,1.01
2023-03-29T03:45:21.183Z,1.01
2023-03-29T03:48:48.070Z,0.83
2023-03-29T03:52:20.808Z,0.98
2023-03-29T03:55:24.524Z,0.96
2023-03-29T03:58:38.081Z,1.06
2023-03-29T04:01:45.402Z,1.02
2023-03-29T04:04:52.062Z,1.05
2023-03-29T04:07:56.179Z,1.10
2023-03-29T04:11:27.997Z,1.12
2023-03-29T04:14:32.402Z,1.23
2023-03-29T04:18:07.706Z,1.28
2023-03-29T04:21:18.904Z,1.30
2023-03-29T04:24:24.308Z,1.28
2023-03-29T04:27:48.674Z,1.20
2023-03-29T04:31:17.003Z,1.18
2023-03-29T04:34:38.381Z,1.34
2023-03-29T04:37:41.914Z,1.50
2023-03-29T04:40:48.540Z,1.62
2023-03-29T04:44:02.913Z,1.64
2023-03-29T04:47:07.599Z,1.74
2023-03-29T04:50:37.562Z,1.79
2023-03-29T04:53:40.713Z,1.82
2023-03-29T04:56:43.323Z,1.98
2023-03-29T05:00:08.350Z,2.11
2023-03-29T05:03:31.562Z,2.11
2023-03-29T05:06:46.139Z,2.25
2023-03-29T05:09:48.944Z,2.32
2023-03-29T05:12:54.254Z,2.30
2023-03-29T05:16:00.789Z,2.51
2023-03-29T05:19:04.289Z,2.60
2023-03-29T05:22:09.142Z,2.56
2023-03-29T05:25:13.443Z,2.64
2023-03-29T05:28:19.310Z,2.59
2023-03-29T05:31:24.633Z,2.65
2023-03-29T05:34:31.909Z,2.73
2023-03-29T05:37:39.353Z,2.96
2023-03-29T05:40:45.497Z,3.04
2023-03-29T05:44:14.894Z,3.19
2023-03-29T05:47:21.097Z,3.26
2023-03-29T05:50:38.376Z,3.44
2023-03-29T05:53:46.992Z,3.54
2023-03-29T05:56:50.554Z,3.32
2023-03-29T06:00:25.558Z,3.61
2023-03-29T06:03:45.341Z,3.81
2023-03-29T06:06:51.019Z,3.72
2023-03-29T06:09:56.829Z,3.80
2023-03-29T06:13:00.251Z,3.88
2023-03-29T06:16:04.389Z,3.81
2023-03-29T06:19:17.430Z,3.97
2023-03-29T06:22:27.295Z,4.05
2023-03-29T06:25:44.751Z,4.14
2023-03-29T06:28:51.406Z,4.24
2023-03-29T06:31:57.366Z,4.41
2023-03-29T06:35:21.324Z,4.41
2023-03-29T06:38:34.039Z,4.44
2023-03-29T06:41:49.237Z,4.56
2023-03-29T06:45:17.971Z,4.37
2023-03-29T06:48:30.867Z,4.51
2023-03-29T06:51:54.545Z,4.88
2023-03-29T06:55:07.593Z,4.90
2023-03-29T06:58:15.606Z,4.95
2023-03-29T07:01:19.343Z,5.07
2023-03-29T07:04:27.135Z,5.27
2023-03-29T07:08:00.370Z,5.26
2023-03-29T07:11:22.203Z,5.35
2023-03-29T07:14:31.558Z,5.22
2023-03-29T07:17:34.804Z,5.18
2023-03-29T07:20:40.591Z,4.69
2023-03-29T07:23:45.274Z,4.57
2023-03-29T07:27:00.234Z,4.91
2023-03-29T07:30:11.404Z,4.87
2023-03-29T07:33:15.027Z,5.04
2023-03-29T07:36:25.534Z,5.29
2023-03-29T07:39:31.728Z,5.38
2023-03-29T07:43:09.135Z,5.68
2023-03-29T07:46:53.128Z,5.99
2023-03-29T07:50:56.864Z,6.05
2023-03-29T07:54:26.568Z,6.05
2023-03-29T07:57:53.617Z,5.87
2023-03-29T08:00:58.694Z,6.32
2023-03-29T08:04:42.041Z,6.17
2023-03-29T08:07:59.589Z,6.58
2023-03-29T08:11:33.630Z,6.35
2023-03-29T08:14:40.312Z,6.67
2023-03-29T08:18:08.103Z,6.86
2023-03-29T08:21:12.822Z,6.91
2023-03-29T08:24:17.636Z,6.91
2023-03-29T08:27:26.185Z,6.53
2023-03-29T08:30:29.813Z,6.48
2023-03-29T08:33:33.945Z,6.93
2023-03-29T08:37:11.040Z,7.14
2023-03-29T08:45:08.621Z,7.36
2023-03-29T08:48:30.102Z,7.40
2023-03-29T08:51:46.633Z,7.35
2023-03-29T08:54:53.982Z,7.35
2023-03-29T08:58:08.373Z,7.53
2023-03-29T09:01:12.602Z,7.50
2023-03-29T09:04:34.280Z,7.06
2023-03-29T09:07:45.709Z,7.02
2023-03-29T09:11:16.932Z,7.01
2023-03-29T09:14:42.473Z,7.33
2023-03-29T09:18:00.040Z,7.40
2023-03-29T09:21:16.435Z,7.47
2023-03-29T09:24:42.935Z,7.32
2023-03-29T09:28:04.284Z,7.19
2023-03-29T09:31:37.426Z,7.04
2023-03-29T09:35:19.342Z,7.17
2023-03-29T09:38:54.938Z,7.44
2023-03-29T09:42:22.579Z,7.38
2023-03-29T09:45:31.961Z,8.01
2023-03-29T09:48:42.057Z,8.21
2023-03-29T09:51:51.642Z,8.01
2023-03-29T09:54:58.174Z,8.26
2023-03-29T09:58:23.320Z,8.31
2023-03-29T10:01:38.299Z,8.32
2023-03-29T10:04:43.402Z,8.66
2023-03-29T10:07:53.799Z,8.54
2023-03-29T10:11:04.336Z,8.66
2023-03-29T10:14:20.662Z,9.31
2023-03-29T10:17:30.460Z,9.42
2023-03-29T10:20:38.263Z,9.23
2023-03-29T10:23:41.590Z,9.14
2023-03-29T10:26:44.888Z,8.95
2023-03-29T10:29:47.932Z,8.73
2023-03-29T10:32:59.859Z,9.00
2023-03-29T10:36:06.904Z,9.19
2023-03-29T10:39:15.667Z,9.32
2023-03-29T10:42:23.854Z,9.50
2023-03-29T10:45:35.010Z,9.18
2023-03-29T10:48:38.124Z,9.55
2023-03-29T10:51:45.702Z,9.84
2023-03-29T10:54:52.579Z,9.67
2023-03-29T10:58:27.622Z,9.66
2023-03-29T11:02:23.153Z,9.78
2023-03-29T11:06:01.649Z,9.35
2023-03-29T11:09:39.474Z,9.75
2023-03-29T11:12:50.169Z,9.96
2023-03-29T11:16:05.093Z,10.15
2023-03-29T11:19:10.453Z,10.08
2023-03-29T11:22:22.966Z,9.54
2023-03-29T11:25:42.043Z,9.88
2023-03-29T11:29:14.941Z,9.97
2023-03-29T11:32:29.942Z,10.86
2023-03-29T11:35:41.923Z,11.24
2023-03-29T11:39:16.124Z,10.58
2023-03-29T11:42:24.455Z,11.23
2023-03-29T11:45:35.586Z,11.42
2023-03-29T11:48:53.929Z,11.88
2023-03-29T11:52:22.742Z,11.66
2023-03-29T11:55:30.055Z,10.03
2023-03-29T11:58:40.990Z,10.56
2023-03-29T12:02:14.881Z,11.66
2023-03-29T12:06:01.254Z,11.00
2023-03-29T12:09:24.299Z,10.32
2023-03-29T12:12:49.437Z,10.54
2023-03-29T12:22:01.438Z,10.47
2023-03-29T12:25:18.424Z,10.77
2023-03-29T12:28:53.162Z,11.01
2023-03-29T12:31:59.775Z,12.74
2023-03-29T12:35:26.713Z,13.14
2023-03-29T12:39:19.941Z,13.19
2023-03-29T12:42:47.182Z,12.98
2023-03-29T12:46:24.661Z,13.33
2023-03-29T12:49:36.182Z,12.39
2023-03-29T12:53:00.596Z,12.85
2023-03-29T12:56:25.645Z,12.86
2023-03-29T12:59:40.873Z,14.34
2023-03-29T13:02:45.831Z,15.05
2023-03-29T13:06:00.045Z,16.11
2023-03-29T13:09:23.377Z,15.48
2023-03-29T13:12:32.172Z,15.06
2023-03-29T13:15:37.659Z,14.97
2023-03-29T13:19:02.859Z,14.47
2023-03-29T13:22:47.015Z,13.50
2023-03-29T13:26:19.755Z,14.80
2023-03-29T13:30:06.028Z,14.60
2023-03-29T13:33:38.649Z,14.75
2023-03-29T13:37:13.021Z,14.28
2023-03-29T13:40:44.145Z,13.91
2023-03-29T13:43:59.280Z,14.74
2023-03-29T13:47:19.317Z,18.01
2023-03-29T13:50:35.335Z,17.42
2023-03-29T13:53:46.875Z,15.86
2023-03-29T13:57:05.161Z,16.19
2023-03-29T14:00:20.389Z,15.73
2023-03-29T14:03:29.829Z,16.18
2023-03-29T14:06:37.576Z,15.93
2023-03-29T14:09:44.574Z,16.51
2023-03-29T14:12:49.622Z,16.67
2023-03-29T14:16:02.800Z,16.95
2023-03-29T14:19:15.489Z,15.44
2023-03-29T14:22:21.993Z,14.81
2023-03-29T14:25:25.597Z,16.04
2023-03-29T14:28:29.324Z,14.61
2023-03-29T14:31:38.122Z,14.07
2023-03-29T14:34:41.914Z,13.54
2023-03-29T14:37:48.691Z,13.26
2023-03-29T14:41:02.748Z,13.56
2023-03-29T14:44:08.263Z,13.11
2023-03-29T14:47:23.970Z,13.20
2023-03-29T14:50:30.981Z,12.96
2023-03-29T14:53:38.092Z,13.02
2023-03-29T14:56:42.248Z,13.28
2023-03-29T14:59:55.996Z,13.24
2023-03-29T15:03:01.754Z,13.20
2023-03-29T15:06:05.466Z,12.33
2023-03-29T15:09:17.046Z,12.68
2023-03-29T15:12:20.432Z,12.70
2023-03-29T15:15:25.714Z,12.92
2023-03-29T15:18:32.699Z,13.08
2023-03-29T15:21:36.232Z,13.03
2023-03-29T15:24:45.142Z,12.25
2023-03-29T15:27:57.231Z,12.59
2023-03-29T15:31:21.059Z,12.09
2023-03-29T15:34:27.378Z,11.94
2023-03-29T15:37:30.094Z,11.90
2023-03-29T15:40:33.388Z,12.64
2023-03-29T15:43:37.295Z,12.84
2023-03-29T15:46:41.336Z,11.95
2023-03-29T15:49:47.491Z,12.24
2023-03-29T15:52:50.529Z,11.78
2023-03-29T15:56:00.801Z,12.17
2023-03-29T15:59:04.990Z,12.28
2023-03-29T16:02:15.873Z,12.02
2023-03-29T16:05:19.139Z,11.98
2023-03-29T16:08:21.814Z,12.07
2023-03-29T16:11:24.593Z,11.45
2023-03-29T16:14:30.495Z,11.70
2023-03-29T16:17:34.334Z,11.26
2023-03-29T16:20:42.045Z,11.43
2023-03-29T16:23:47.194Z,11.92
2023-03-29T16:26:54.656Z,11.65
2023-03-29T16:29:59.109Z,11.77
2023-03-29T16:33:06.289Z,11.76
2023-03-29T16:36:10.303Z,11.76
2023-03-29T16:39:14.158Z,11.47
2023-03-29T16:45:20.374Z,11.23
2023-03-29T16:48:24.068Z,11.24
2023-03-29T16:51:27.421Z,10.68
2023-03-29T16:54:31.788Z,10.87
2023-03-29T16:57:34.619Z,11.01
2023-03-29T17:00:38.079Z,10.79
2023-03-29T17:03:41.240Z,10.89
2023-03-29T17:06:43.899Z,10.98
2023-03-29T17:09:47.720Z,10.97
2023-03-29T17:12:51.515Z,10.75
2023-03-29T17:15:55.632Z,10.71
2023-03-29T17:19:00.640Z,10.84
2023-03-29T17:22:03.795Z,10.98
2023-03-29T17:25:08.418Z,10.91
2023-03-29T17:28:12.121Z,11.06
2023-03-29T17:31:16.148Z,11.01
2023-03-29T17:34:19.718Z,10.99
2023-03-29T17:37:22.767Z,11.12
2023-03-29T17:40:27.175Z,11.12
2023-03-29T17:43:30.407Z,10.85
2023-03-29T17:46:33.558Z,10.60
2023-03-29T17:49:36.558Z,10.49
2023-03-29T17:52:39.706Z,10.33
2023-03-29T17:55:43.131Z,10.38
2023-03-29T17:58:46.584Z,10.16
2023-03-29T18:01:49.426Z,10.09
2023-03-29T18:04:52.568Z,10.00
2023-03-29T18:07:55.449Z,10.32
2023-03-29T18:11:11.662Z,10.29
2023-03-29T18:14:14.337Z,10.28
2023-03-29T18:17:17.112Z,10.43
2023-03-29T18:20:20.780Z,10.53
2023-03-29T18:23:23.512Z,10.42
2023-03-29T18:26:26.618Z,10.34
2023-03-29T18:29:30.055Z,10.32
2023-03-29T18:32:33.202Z,10.29
2023-03-29T18:35:36.327Z,10.05
2023-03-29T18:38:40.658Z,10.03
2023-03-29T18:41:44.154Z,9.94
2023-03-29T18:44:47.635Z,9.86
2023-03-29T18:47:50.642Z,9.93
2023-03-29T18:50:57.186Z,9.90
2023-03-29T18:54:01.111Z,9.95
2023-03-29T18:57:04.684Z,9.99
2023-03-29T19:00:12.640Z,9.96
2023-03-29T19:03:16.169Z,9.83
2023-03-29T19:06:19.653Z,9.94
2023-03-29T19:09:22.944Z,10.05
2023-03-29T19:12:25.854Z,9.87
2023-03-29T19:15:28.543Z,9.93
2023-03-29T19:18:31.350Z,9.81
2023-03-29T19:21:34.232Z,9.71
2023-03-29T19:24:37.708Z,9.76
2023-03-29T19:27:41.660Z,9.85
2023-03-29T19:30:44.317Z,9.92
2023-03-29T19:33:47.633Z,9.99
2023-03-29T19:36:53.519Z,10.05
2023-03-29T19:39:57.234Z,10.05
2023-03-29T19:43:01.218Z,9.69
2023-03-29T19:46:13.550Z,9.69
2023-03-29T19:49:17.355Z,9.90
2023-03-29T19:52:23.978Z,9.95
2023-03-29T19:55:27.258Z,9.84
2023-03-29T19:58:30.807Z,9.81
2023-03-29T20:01:34.259Z,9.96
2023-03-29T20:04:37.618Z,10.03
2023-03-29T20:07:41.705Z,9.86
2023-03-29T20:10:44.239Z,9.39
2023-03-29T20:13:46.832Z,9.24
2023-03-29T20:16:50.792Z,9.33
2023-03-29T20:19:55.613Z,9.36
2023-03-29T20:23:04.520Z,9.51
2023-03-29T20:26:08.520Z,9.67
2023-03-29T20:29:11.742Z,9.68
2023-03-29T20:32:16.315Z,9.76
2023-03-29T20:35:19.923Z,9.88
2023-03-29T20:38:23.341Z,9.78
2023-03-29T20:41:26.275Z,9.91
2023-03-29T20:44:28.912Z,9.53
2023-03-29T20:47:32.263Z,9.74
2023-03-29T20:50:38.318Z,9.86
2023-03-29T20:53:42.974Z,9.54
2023-03-29T20:56:47.985Z,9.60
2023-03-29T20:59:51.327Z,9.73
2023-03-29T21:02:58.745Z,9.82
2023-03-29T21:06:02.401Z,9.78
2023-03-29T21:09:06.133Z,9.79
2023-03-29T21:12:09.081Z,9.75
2023-03-29T21:15:13.666Z,9.94
2023-03-29T21:18:17.406Z,9.91
2023-03-29T21:21:19.995Z,10.08
2023-03-29T21:24:22.704Z,10.04
2023-03-29T21:27:26.255Z,10.03
2023-03-29T21:30:31.993Z,9.62
2023-03-29T21:33:36.300Z,9.39
2023-03-29T21:36:40.558Z,9.48
2023-03-29T21:39:43.241Z,9.63
2023-03-29T21:42:45.853Z,9.47
2023-03-29T21:45:50.461Z,9.48
2023-03-29T21:48:54.502Z,9.25
2023-03-29T21:51:57.233Z,9.24
2023-03-29T21:55:00.323Z,9.52
2023-03-29T21:58:04.357Z,9.65
2023-03-29T22:01:10.139Z,9.68
2023-03-29T22:04:22.590Z,9.59
2023-03-29T22:07:35.276Z,9.43
2023-03-29T22:10:41.510Z,9.59
2023-03-29T22:13:45.414Z,9.78
2023-03-29T22:16:48.974Z,9.62
2023-03-29T22:19:53.053Z,9.38
2023-03-29T22:22:55.767Z,9.55
2023-03-29T22:25:58.325Z,9.75
2023-03-29T22:29:02.315Z,9.60
2023-03-29T22:32:05.921Z,9.57
2023-03-29T22:35:09.787Z,9.57
2023-03-29T22:38:13.303Z,9.56
2023-03-29T22:41:18.248Z,9.65
2023-03-29T22:44:21.109Z,9.81
2023-03-29T22:47:24.461Z,9.72
2023-03-29T22:50:27.920Z,9.72
2023-03-29T22:53:30.499Z,9.71
2023-03-29T22:56:33.976Z,9.69
2023-03-29T22:59:38.013Z,9.70
2023-03-29T23:02:41.717Z,9.69
2023-03-29T23:05:53.368Z,9.33
2023-03-29T23:08:57.087Z,9.06
2023-03-29T23:12:01.215Z,9.07
2023-03-29T23:15:06.390Z,9.10
2023-03-29T23:18:13.145Z,9.04
2023-03-29T23:21:16.266Z,9.00
2023-03-29T23:24:19.297Z,8.83
2023-03-29T23:27:22.874Z,8.85
2023-03-29T23:30:25.496Z,8.83
2023-03-29T23:33:36.431Z,9.06
2023-03-29T23:36:39.902Z,9.23
2023-03-29T23:39:42.764Z,9.26
2023-03-29T23:42:46.593Z,9.10
2023-03-29T23:45:56.184Z,9.00
2023-03-29T23:48:58.955Z,9.11
2023-03-29T23:52:02.622Z,8.90
2023-03-29T23:55:05.834Z,8.93
2023-03-29T23:58:09.257Z,8.99
